createdAt,value
2019-02-26T00:00:44.875Z,1.20
2019-02-26T00:04:00.779Z,1.20
2019-02-26T00:11:40.305Z,1.00
2019-02-26T00:15:06.490Z,0.90
2019-02-26T00:18:26.583Z,0.90
2019-02-26T00:21:50.127Z,1.00
2019-02-26T00:28:08.683Z,0.90
2019-02-26T00:31:10.058Z,0.90
2019-02-26T00:34:32.386Z,1.00
2019-02-26T00:37:56.542Z,1.00
2019-02-26T00:41:09.423Z,0.90
2019-02-26T00:44:25.223Z,0.90
2019-02-26T00:47:55.665Z,1.00
2019-02-26T00:51:26.913Z,0.90
2019-02-26T00:54:37.137Z,0.80
2019-02-26T01:00:19.497Z,0.70
2019-02-26T01:02:54.480Z,0.70
2019-02-26T01:05:48.249Z,0.60
2019-02-26T01:08:47.097Z,0.70
2019-02-26T01:11:42.943Z,0.70
2019-02-26T01:14:26.233Z,0.60
2019-02-26T01:17:03.786Z,0.70
2019-02-26T01:19:40.729Z,0.70
2019-02-26T01:22:58.973Z,0.60
2019-02-26T01:25:38.268Z,0.60
2019-02-26T01:28:39.598Z,0.50
2019-02-26T01:31:33.984Z,0.50
2019-02-26T01:34:20.350Z,0.40
2019-02-26T01:36:52.856Z,0.40
2019-02-26T01:39:35.638Z,0.40
2019-02-26T01:42:13.382Z,0.50
2019-02-26T01:44:50.219Z,0.50
2019-02-26T01:47:42.752Z,0.60
2019-02-26T01:50:23.552Z,0.50
2019-02-26T01:53:14.501Z,0.50
2019-02-26T01:55:56.829Z,0.40
2019-02-26T01:58:33.436Z,0.30
2019-02-26T02:01:12.019Z,0.30
2019-02-26T02:03:53.250Z,0.30
2019-02-26T02:06:41.225Z,0.30
2019-02-26T02:09:18.700Z,0.30
2019-02-26T02:12:02.185Z,0.30
2019-02-26T02:14:39.367Z,0.30
2019-02-26T02:17:25.312Z,0.30
2019-02-26T02:20:15.686Z,0.30
2019-02-26T02:23:13.504Z,0.20
2019-02-26T02:25:48.618Z,0.20
2019-02-26T02:28:46.369Z,0.10
2019-02-26T02:31:31.131Z,0.00
2019-02-26T02:34:15.637Z,0.10
2019-02-26T02:37:14.857Z,0.10
2019-02-26T02:39:55.089Z,0.10
2019-02-26T02:42:40.766Z,0.10
2019-02-26T02:45:36.975Z,0.10
2019-02-26T02:48:44.084Z,0.00
2019-02-26T02:51:25.738Z,0.00
2019-02-26T03:00:41.802Z,0.00
2019-02-26T03:03:40.186Z,0.00
2019-02-26T03:06:38.566Z,0.10
2019-02-26T03:09:20.285Z,0.10
2019-02-26T03:11:58.140Z,0.00
2019-02-26T03:14:44.500Z,-0.10
2019-02-26T03:17:22.175Z,-0.10
2019-02-26T03:19:58.450Z,-0.10
2019-02-26T03:22:34.160Z,-0.10
2019-02-26T03:25:24.363Z,-0.10
2019-02-26T03:28:00.743Z,-0.20
2019-02-26T03:30:40.175Z,-0.20
2019-02-26T03:33:22.373Z,-0.20
2019-02-26T03:36:05.502Z,-0.10
2019-02-26T03:38:37.087Z,-0.10
2019-02-26T03:41:10.434Z,-0.10
2019-02-26T03:43:57.301Z,-0.20
2019-02-26T03:46:30.233Z,-0.20
2019-02-26T03:49:05.647Z,-0.30
2019-02-26T03:51:39.740Z,-0.30
2019-02-26T03:54:10.241Z,-0.30
2019-02-26T03:56:42.824Z,-0.30
2019-02-26T03:59:16.828Z,-0.20
2019-02-26T04:01:49.895Z,-0.20
2019-02-26T04:04:22.938Z,-0.10
2019-02-26T04:06:55.758Z,-0.10
2019-02-26T04:09:33.483Z,-0.10
2019-02-26T04:12:07.616Z,-0.10
2019-02-26T04:14:44.141Z,-0.10
2019-02-26T04:17:28.637Z,-0.10
2019-02-26T04:19:59.727Z,-0.20
2019-02-26T04:22:42.259Z,-0.20
2019-02-26T04:25:17.143Z,-0.20
2019-02-26T04:28:31.214Z,-0.20
2019-02-26T04:31:32.815Z,-0.30
2019-02-26T04:35:00.486Z,-0.30
2019-02-26T04:38:12.604Z,-0.30
2019-02-26T04:41:11.988Z,-0.40
2019-02-26T04:44:26.267Z,-0.30
2019-02-26T04:47:09.614Z,-0.30
2019-02-26T04:50:05.501Z,-0.30
2019-02-26T04:52:35.743Z,-0.30
2019-02-26T04:55:08.673Z,-0.40
2019-02-26T04:57:42.615Z,-0.40
2019-02-26T05:00:23.511Z,-0.50
2019-02-26T05:02:56.167Z,-0.50
2019-02-26T05:05:28.510Z,-0.50
2019-02-26T05:07:59.053Z,-0.50
2019-02-26T05:10:34.330Z,-0.40
2019-02-26T05:13:09.554Z,-0.40
2019-02-26T05:15:43.390Z,-0.50
2019-02-26T05:18:13.302Z,-0.50
2019-02-26T05:20:48.106Z,-0.50
2019-02-26T05:23:20.680Z,-0.50
2019-02-26T05:26:15.255Z,-0.50
2019-02-26T05:28:46.925Z,-0.40
2019-02-26T05:31:18.055Z,-0.50
2019-02-26T05:33:50.134Z,-0.50
2019-02-26T05:36:25.426Z,-0.50
2019-02-26T05:38:59.505Z,-0.50
2019-02-26T05:41:30.460Z,-0.50
2019-02-26T05:44:23.368Z,-0.50
2019-02-26T05:50:06.237Z,-0.50
2019-02-26T05:52:35.880Z,-0.60
2019-02-26T05:55:07.211Z,-0.60
2019-02-26T05:57:39.703Z,-0.60
2019-02-26T06:00:13.476Z,-0.50
2019-02-26T06:02:44.754Z,-0.60
2019-02-26T06:05:14.443Z,-0.60
2019-02-26T06:07:45.689Z,-0.70
2019-02-26T06:10:18.896Z,-0.60
2019-02-26T06:12:48.968Z,-0.60
2019-02-26T06:15:20.380Z,-0.50
2019-02-26T06:17:55.928Z,-0.60
2019-02-26T06:20:28.718Z,-0.70
2019-02-26T06:22:58.318Z,-0.70
2019-02-26T06:25:28.454Z,-0.70
2019-02-26T06:28:02.309Z,-0.70
2019-02-26T06:30:31.975Z,-0.50
2019-02-26T06:33:04.373Z,-0.50
2019-02-26T06:35:35.984Z,-0.40
2019-02-26T06:38:11.510Z,-0.30
2019-02-26T06:40:44.587Z,-0.30
2019-02-26T06:43:15.849Z,-0.10
2019-02-26T06:45:47.734Z,-0.10
2019-02-26T06:48:20.894Z,0.00
2019-02-26T06:50:51.458Z,0.10
2019-02-26T06:53:21.700Z,0.10
2019-02-26T06:55:55.555Z,0.10
2019-02-26T06:58:30.693Z,0.10
2019-02-26T07:01:01.457Z,0.00
2019-02-26T07:03:33.102Z,0.00
2019-02-26T07:06:04.941Z,0.10
2019-02-26T07:08:35.211Z,0.10
2019-02-26T07:11:07.317Z,0.30
2019-02-26T07:13:39.177Z,0.30
2019-02-26T07:16:09.648Z,0.30
2019-02-26T07:18:39.836Z,0.30
2019-02-26T07:21:18.896Z,0.30
2019-02-26T07:23:51.629Z,0.40
2019-02-26T07:26:23.111Z,0.40
2019-02-26T07:28:55.835Z,0.50
2019-02-26T07:31:26.586Z,0.60
2019-02-26T07:34:00.120Z,0.70
2019-02-26T07:36:29.815Z,0.70
2019-02-26T07:38:59.998Z,0.90
2019-02-26T07:41:33.811Z,1.00
2019-02-26T07:44:09.040Z,1.00
2019-02-26T07:46:40.136Z,1.10
2019-02-26T07:49:09.966Z,1.20
2019-02-26T07:51:41.095Z,1.30
2019-02-26T07:54:13.843Z,1.40
2019-02-26T07:56:44.933Z,1.50
2019-02-26T07:59:15.202Z,1.60
2019-02-26T08:01:47.199Z,1.70
2019-02-26T08:04:18.419Z,1.90
2019-02-26T08:06:48.726Z,1.90
2019-02-26T08:09:21.245Z,1.90
2019-02-26T08:11:53.425Z,2.00
2019-02-26T08:14:25.644Z,2.20
2019-02-26T08:16:58.695Z,2.40
2019-02-26T08:19:29.713Z,2.40
2019-02-26T08:22:02.074Z,2.40
2019-02-26T08:24:32.271Z,2.50
2019-02-26T08:27:06.023Z,2.70
2019-02-26T08:29:38.428Z,2.80
2019-02-26T08:32:13.772Z,3.00
2019-02-26T08:34:44.296Z,3.10
2019-02-26T08:37:14.906Z,3.20
2019-02-26T08:39:45.566Z,3.40
2019-02-26T08:42:15.706Z,3.50
2019-02-26T08:44:46.840Z,3.70
2019-02-26T08:47:23.511Z,3.80
2019-02-26T08:49:53.713Z,4.00
2019-02-26T08:52:27.429Z,4.20
2019-02-26T08:54:59.778Z,4.30
2019-02-26T08:57:30.450Z,4.60
2019-02-26T09:00:01.665Z,4.80
2019-02-26T09:02:31.898Z,5.00
2019-02-26T09:05:04.452Z,5.30
2019-02-26T09:07:34.501Z,5.50
2019-02-26T09:10:07.147Z,5.60
2019-02-26T09:12:41.341Z,5.80
2019-02-26T09:15:13.171Z,6.00
2019-02-26T09:17:43.853Z,6.10
2019-02-26T09:20:15.535Z,6.30
2019-02-26T09:27:04.349Z,6.60
2019-02-26T09:29:36.760Z,6.90
2019-02-26T09:32:09.292Z,7.10
2019-02-26T09:34:39.942Z,7.30
2019-02-26T09:37:10.807Z,7.50
2019-02-26T09:39:47.875Z,7.60
2019-02-26T09:42:21.002Z,7.80
2019-02-26T09:44:52.971Z,7.90
2019-02-26T09:47:31.554Z,8.10
2019-02-26T09:50:04.421Z,8.40
2019-02-26T09:52:34.788Z,8.50
2019-02-26T09:55:05.640Z,8.80
2019-02-26T09:57:37.084Z,8.90
2019-02-26T10:00:10.851Z,9.20
2019-02-26T10:02:42.506Z,9.30
2019-02-26T10:05:16.409Z,9.50
2019-02-26T10:07:47.480Z,9.60
2019-02-26T10:10:18.244Z,9.70
2019-02-26T10:12:48.395Z,9.80
2019-02-26T10:15:19.774Z,10.00
2019-02-26T10:17:52.014Z,10.30
2019-02-26T10:20:25.402Z,10.50
2019-02-26T10:23:00.440Z,10.60
2019-02-26T10:25:31.941Z,10.60
2019-02-26T10:28:05.702Z,10.70
2019-02-26T10:30:40.975Z,10.90
2019-02-26T10:33:09.141Z,11.00
2019-02-26T10:35:42.003Z,11.00
2019-02-26T10:38:13.136Z,11.10
2019-02-26T10:40:53.435Z,11.20
2019-02-26T10:43:17.997Z,11.40
2019-02-26T10:45:50.544Z,11.60
2019-02-26T10:48:22.783Z,11.70
2019-02-26T10:50:54.768Z,11.80
2019-02-26T10:53:28.274Z,11.80
2019-02-26T10:56:01.059Z,11.80
2019-02-26T10:58:31.666Z,12.00
2019-02-26T11:01:05.115Z,12.20
2019-02-26T11:03:37.966Z,12.30
2019-02-26T11:06:08.159Z,12.40
2019-02-26T11:08:41.211Z,12.60
2019-02-26T11:11:18.193Z,12.70
2019-02-26T11:13:51.197Z,12.90
2019-02-26T11:16:43.428Z,12.90
2019-02-26T11:19:13.886Z,13.00
2019-02-26T11:21:47.341Z,13.10
2019-02-26T11:24:17.349Z,13.10
2019-02-26T11:26:47.574Z,13.30
2019-02-26T11:29:18.141Z,13.30
2019-02-26T11:31:49.720Z,13.40
2019-02-26T11:34:20.092Z,13.50
2019-02-26T11:36:50.271Z,13.60
2019-02-26T11:39:21.481Z,13.60
2019-02-26T11:41:53.619Z,13.70
2019-02-26T11:44:25.779Z,13.80
2019-02-26T11:46:56.499Z,14.00
2019-02-26T11:49:31.132Z,14.10
2019-02-26T11:52:07.176Z,14.10
2019-02-26T11:54:39.690Z,14.10
2019-02-26T11:57:11.192Z,14.20
2019-02-26T11:59:42.865Z,14.30
2019-02-26T12:02:24.914Z,14.30
2019-02-26T12:04:49.415Z,14.30
2019-02-26T12:07:19.857Z,14.30
2019-02-26T12:09:50.078Z,14.40
2019-02-26T12:12:20.573Z,14.60
2019-02-26T12:14:51.674Z,14.70
2019-02-26T12:17:24.050Z,14.80
2019-02-26T12:19:57.942Z,14.80
2019-02-26T12:22:29.898Z,14.80
2019-02-26T12:25:05.143Z,14.80
2019-02-26T12:27:39.018Z,14.80
2019-02-26T12:30:15.245Z,14.90
2019-02-26T12:32:47.562Z,15.00
2019-02-26T12:35:18.037Z,15.00
2019-02-26T12:37:50.185Z,15.10
2019-02-26T12:40:25.545Z,15.20
2019-02-26T12:42:57.946Z,15.30
2019-02-26T12:45:31.037Z,15.40
2019-02-26T12:48:03.558Z,15.50
2019-02-26T12:50:36.646Z,15.50
2019-02-26T12:53:12.706Z,15.50
2019-02-26T12:55:42.709Z,15.50
2019-02-26T12:58:16.993Z,15.60
2019-02-26T13:00:45.299Z,15.60
2019-02-26T13:03:19.646Z,15.70
2019-02-26T13:05:49.193Z,15.70
2019-02-26T13:08:20.531Z,15.70
2019-02-26T13:10:56.160Z,15.70
2019-02-26T13:13:24.368Z,15.90
2019-02-26T13:15:54.749Z,15.80
2019-02-26T13:18:25.171Z,15.80
2019-02-26T13:20:59.288Z,16.00
2019-02-26T13:23:27.564Z,16.10
2019-02-26T13:25:57.910Z,16.20
2019-02-26T13:28:29.678Z,16.30
2019-02-26T13:31:02.349Z,16.30
2019-02-26T13:33:35.143Z,16.40
2019-02-26T13:36:04.841Z,16.30
2019-02-26T13:38:44.058Z,16.40
2019-02-26T13:41:25.242Z,16.60
2019-02-26T13:43:38.945Z,16.50
2019-02-26T13:46:09.247Z,16.70
2019-02-26T13:48:39.695Z,16.80
2019-02-26T13:51:10.103Z,16.90
2019-02-26T13:53:40.536Z,17.10
2019-02-26T13:56:10.829Z,17.10
2019-02-26T13:58:41.824Z,17.20
2019-02-26T14:01:12.395Z,17.40
2019-02-26T14:03:42.908Z,17.60
2019-02-26T14:06:13.499Z,17.80
2019-02-26T14:08:46.539Z,18.30
2019-02-26T14:11:16.752Z,18.80
2019-02-26T14:13:47.323Z,19.70
2019-02-26T14:16:17.518Z,20.50
2019-02-26T14:18:48.257Z,21.30
2019-02-26T14:21:18.636Z,22.20
2019-02-26T14:23:48.827Z,23.00
2019-02-26T14:26:19.513Z,23.70
2019-02-26T14:28:49.799Z,24.30
2019-02-26T14:31:20.074Z,24.70
2019-02-26T14:33:50.752Z,25.20
2019-02-26T14:36:21.110Z,25.20
2019-02-26T14:38:51.278Z,25.20
2019-02-26T14:41:21.570Z,24.90
2019-02-26T14:43:51.821Z,24.30
2019-02-26T14:46:21.976Z,24.20
2019-02-26T14:48:52.157Z,24.30
2019-02-26T14:51:22.417Z,23.90
2019-02-26T14:53:52.811Z,24.30
2019-02-26T14:56:25.014Z,24.50
2019-02-26T14:58:55.311Z,24.50
2019-02-26T15:01:25.647Z,24.70
2019-02-26T15:03:56.483Z,24.20
2019-02-26T15:06:26.598Z,23.80
2019-02-26T15:08:56.722Z,23.50
2019-02-26T15:11:28.233Z,23.10
2019-02-26T15:13:58.406Z,23.00
2019-02-26T15:16:28.882Z,22.70
2019-02-26T15:18:59.046Z,22.70
2019-02-26T15:21:29.925Z,22.60
2019-02-26T15:24:00.115Z,22.40
2019-02-26T15:26:30.320Z,22.40
2019-02-26T15:29:00.427Z,22.30
2019-02-26T15:31:30.627Z,22.10
2019-02-26T15:34:00.741Z,22.00
2019-02-26T15:36:30.951Z,22.10
2019-02-26T15:39:01.068Z,22.40
2019-02-26T15:41:31.208Z,22.60
2019-02-26T15:44:01.356Z,22.60
2019-02-26T15:46:32.503Z,22.20
2019-02-26T15:49:07.323Z,22.20
2019-02-26T15:51:35.192Z,22.30
2019-02-26T15:54:06.558Z,22.30
2019-02-26T15:56:36.815Z,22.30
2019-02-26T15:59:07.205Z,22.20
2019-02-26T16:01:37.623Z,21.90
2019-02-26T16:04:07.851Z,21.60
2019-02-26T16:06:38.942Z,21.10
2019-02-26T16:09:12.461Z,20.30
2019-02-26T16:11:43.082Z,19.40
2019-02-26T16:14:20.209Z,18.80
2019-02-26T16:16:50.389Z,18.40
2019-02-26T16:19:33.524Z,18.00
2019-02-26T16:22:06.994Z,17.70
2019-02-26T16:24:37.131Z,17.40
2019-02-26T16:27:07.679Z,17.20
2019-02-26T16:29:38.301Z,17.00
2019-02-26T16:32:09.178Z,16.80
2019-02-26T16:34:42.974Z,16.60
2019-02-26T16:37:13.402Z,16.50
2019-02-26T16:39:48.317Z,16.20
2019-02-26T16:42:19.893Z,15.60
2019-02-26T16:44:55.529Z,15.00
2019-02-26T16:47:28.753Z,14.60
2019-02-26T16:50:11.818Z,14.10
2019-02-26T16:52:31.699Z,13.70
2019-02-26T16:55:03.141Z,13.20
2019-02-26T16:57:33.927Z,12.80
2019-02-26T17:00:06.152Z,12.50
2019-02-26T17:05:15.396Z,12.10
2019-02-26T17:07:47.459Z,11.90
2019-02-26T17:10:18.272Z,11.70
2019-02-26T17:12:51.378Z,11.50
2019-02-26T17:15:24.629Z,11.30
2019-02-26T17:17:55.903Z,11.00
2019-02-26T17:20:27.049Z,10.80
2019-02-26T17:22:58.890Z,10.50
2019-02-26T17:25:29.563Z,10.30
2019-02-26T17:27:59.961Z,10.30
2019-02-26T17:30:31.887Z,10.10
2019-02-26T17:33:02.476Z,9.90
2019-02-26T17:35:32.627Z,9.80
2019-02-26T17:38:04.300Z,9.80
2019-02-26T17:40:36.735Z,9.60
2019-02-26T17:43:06.510Z,9.30
2019-02-26T17:45:37.211Z,9.10
2019-02-26T17:48:08.169Z,9.10
2019-02-26T17:50:38.404Z,8.80
2019-02-26T17:53:08.969Z,8.60
2019-02-26T17:55:39.989Z,8.40
2019-02-26T17:58:11.221Z,8.30
2019-02-26T18:00:42.800Z,8.30
2019-02-26T18:03:15.834Z,8.30
2019-02-26T18:05:51.291Z,8.30
2019-02-26T18:08:19.888Z,8.30
2019-02-26T18:10:51.540Z,8.20
2019-02-26T18:13:21.812Z,8.20
2019-02-26T18:15:56.064Z,8.10
2019-02-26T18:18:24.664Z,8.00
2019-02-26T18:20:54.917Z,8.00
2019-02-26T18:23:25.574Z,7.80
2019-02-26T18:25:55.749Z,7.70
2019-02-26T18:28:26.037Z,7.70
2019-02-26T18:30:58.011Z,7.70
2019-02-26T18:33:28.617Z,7.60
2019-02-26T18:35:59.368Z,7.60
2019-02-26T18:38:29.763Z,7.60
2019-02-26T18:41:00.779Z,7.40
2019-02-26T18:43:31.909Z,7.30
2019-02-26T18:46:02.625Z,7.20
2019-02-26T18:48:32.856Z,7.10
2019-02-26T18:51:03.102Z,7.00
2019-02-26T18:53:33.334Z,6.80
2019-02-26T18:56:04.199Z,6.70
2019-02-26T18:58:35.062Z,6.70
2019-02-26T19:01:05.330Z,6.60
2019-02-26T19:03:35.718Z,6.60
2019-02-26T19:06:06.074Z,6.70
2019-02-26T19:08:39.956Z,6.60
2019-02-26T19:11:16.682Z,6.60
2019-02-26T19:13:53.931Z,6.50
2019-02-26T19:16:27.588Z,6.50
2019-02-26T19:19:02.096Z,6.50
2019-02-26T19:21:33.504Z,6.40
2019-02-26T19:24:06.388Z,6.20
2019-02-26T19:26:36.674Z,6.10
2019-02-26T19:29:10.105Z,6.10
2019-02-26T19:31:42.413Z,6.10
2019-02-26T19:34:13.496Z,6.10
2019-02-26T19:37:30.583Z,6.00
2019-02-26T19:40:07.126Z,5.90
2019-02-26T19:42:39.443Z,5.80
2019-02-26T19:45:11.811Z,5.90
2019-02-26T19:47:59.120Z,5.70
2019-02-26T19:50:29.679Z,5.60
2019-02-26T19:53:02.481Z,5.60
2019-02-26T19:55:34.791Z,5.60
2019-02-26T19:58:07.098Z,5.60
2019-02-26T20:00:37.538Z,5.70
2019-02-26T20:03:09.407Z,5.60
2019-02-26T20:05:41.150Z,5.50
2019-02-26T20:08:17.433Z,5.30
2019-02-26T20:10:49.187Z,5.30
2019-02-26T20:13:23.133Z,5.20
2019-02-26T20:15:54.866Z,5.20
2019-02-26T20:18:28.691Z,5.10
2019-02-26T20:20:59.517Z,5.00
2019-02-26T20:23:31.193Z,4.90
2019-02-26T20:26:02.615Z,4.80
2019-02-26T20:28:35.434Z,4.80
2019-02-26T20:31:06.388Z,4.80
2019-02-26T20:33:37.358Z,4.80
2019-02-26T20:36:08.617Z,4.80
2019-02-26T20:38:39.074Z,4.70
2019-02-26T20:41:56.695Z,4.70
2019-02-26T20:44:28.342Z,4.70
2019-02-26T20:46:59.631Z,4.70
2019-02-26T20:52:59.936Z,4.60
2019-02-26T20:58:31.727Z,4.40
2019-02-26T21:04:39.369Z,4.10
2019-02-26T21:07:28.349Z,4.00
2019-02-26T21:14:07.524Z,4.10
2019-02-26T21:21:07.450Z,4.20
2019-02-26T21:24:34.617Z,4.00
2019-02-26T21:28:21.235Z,3.80
2019-02-26T21:32:04.320Z,3.80
2019-02-26T21:35:37.761Z,3.60
2019-02-26T21:38:40.959Z,3.50
2019-02-26T21:42:09.385Z,3.40
2019-02-26T21:49:35.750Z,3.40
2019-02-26T21:53:32.082Z,3.40
2019-02-26T21:57:12.420Z,3.40
2019-02-26T22:00:57.358Z,3.40
2019-02-26T22:04:31.740Z,3.20
2019-02-26T22:07:55.496Z,3.00
2019-02-26T22:11:05.213Z,2.90
2019-02-26T22:13:57.008Z,2.80
2019-02-26T22:17:08.968Z,2.70
2019-02-26T22:20:01.591Z,2.80
2019-02-26T22:26:23.625Z,2.80
2019-02-26T22:29:02.753Z,2.70
2019-02-26T22:34:50.840Z,2.60
2019-02-26T22:37:41.365Z,2.50
2019-02-26T22:40:48.934Z,2.50
2019-02-26T22:48:08.630Z,2.50
2019-02-26T22:51:48.510Z,2.40
2019-02-26T23:09:30.599Z,2.10
2019-02-26T23:12:46.684Z,2.00
2019-02-26T23:19:10.941Z,2.00
2019-02-26T23:21:52.291Z,2.00
2019-02-26T23:37:14.392Z,1.80
2019-02-26T23:40:14.058Z,1.90
2019-02-26T23:47:17.528Z,1.60
2019-02-26T23:51:04.175Z,1.60
2019-02-26T23:53:47.647Z,1.60
2019-02-26T23:56:30.730Z,1.60
2019-02-26T23:59:41.786Z,1.50
